createdAt,value
2023-05-01T00:00:26.558Z,9.10
2023-05-01T00:02:54.582Z,9.10
2023-05-01T00:05:21.644Z,9.10
2023-05-01T00:07:48.557Z,9.09
2023-05-01T00:10:15.344Z,9.08
2023-05-01T00:12:42.218Z,9.07
2023-05-01T00:15:09.594Z,9.06
2023-05-01T00:17:36.493Z,9.05
2023-05-01T00:20:05.446Z,9.04
2023-05-01T00:22:32.576Z,9.03
2023-05-01T00:24:59.326Z,9.02
2023-05-01T00:27:26.118Z,9.01
2023-05-01T00:29:53.284Z,8.99
2023-05-01T00:32:20.222Z,8.98
2023-05-01T00:34:48.620Z,8.97
2023-05-01T00:37:15.447Z,8.97
2023-05-01T00:39:42.246Z,8.95
2023-05-01T00:42:09.165Z,8.94
2023-05-01T00:44:35.944Z,8.94
2023-05-01T00:47:04.303Z,8.94
2023-05-01T00:49:31.235Z,8.95
2023-05-01T00:51:58.806Z,8.95
2023-05-01T00:54:27.809Z,8.94
2023-05-01T00:56:55.071Z,8.93
2023-05-01T00:59:22.593Z,8.94
2023-05-01T01:01:50.970Z,8.96
2023-05-01T01:04:17.956Z,8.97
2023-05-01T01:06:57.362Z,8.98
2023-05-01T01:09:43.211Z,8.99
2023-05-01T01:12:17.454Z,9.01
2023-05-01T01:14:44.274Z,9.02
2023-05-01T01:17:17.244Z,9.04
2023-05-01T01:19:49.515Z,9.05
2023-05-01T01:22:17.411Z,9.07
2023-05-01T01:25:06.471Z,9.07
2023-05-01T01:27:36.600Z,9.07
2023-05-01T01:30:03.470Z,9.08
2023-05-01T01:32:33.479Z,9.09
2023-05-01T01:35:04.910Z,9.09
2023-05-01T01:37:32.690Z,9.10
2023-05-01T01:40:07.123Z,9.09
2023-05-01T01:42:36.490Z,9.10
2023-05-01T01:45:05.305Z,9.10
2023-05-01T01:47:32.302Z,9.10
2023-05-01T01:50:04.456Z,9.09
2023-05-01T01:52:31.551Z,9.08
2023-05-01T01:54:58.900Z,9.07
2023-05-01T01:57:26.464Z,9.04
2023-05-01T01:59:53.405Z,9.00
2023-05-01T02:02:21.190Z,8.97
2023-05-01T02:04:48.445Z,8.95
2023-05-01T02:07:15.365Z,8.94
2023-05-01T02:09:42.615Z,8.91
2023-05-01T02:12:09.461Z,8.89
2023-05-01T02:14:36.407Z,8.86
2023-05-01T02:17:03.272Z,8.84
2023-05-01T02:19:30.102Z,8.82
2023-05-01T02:21:57.447Z,8.79
2023-05-01T02:24:24.615Z,8.75
2023-05-01T02:26:54.304Z,8.73
2023-05-01T02:29:21.672Z,8.70
2023-05-01T02:31:48.539Z,8.69
2023-05-01T02:34:15.866Z,8.67
2023-05-01T02:36:42.909Z,8.68
2023-05-01T02:39:09.851Z,8.68
2023-05-01T02:41:37.104Z,8.67
2023-05-01T02:44:04.480Z,8.67
2023-05-01T02:46:35.659Z,8.66
2023-05-01T02:49:03.368Z,8.64
2023-05-01T02:51:31.726Z,8.63
2023-05-01T02:53:59.433Z,8.64
2023-05-01T02:56:28.067Z,8.64
2023-05-01T02:58:55.368Z,8.63
2023-05-01T03:01:22.229Z,8.62
2023-05-01T03:03:49.584Z,8.62
2023-05-01T03:06:16.573Z,8.62
2023-05-01T03:08:43.842Z,8.63
2023-05-01T03:11:10.885Z,8.67
2023-05-01T03:13:37.678Z,8.71
2023-05-01T03:16:04.884Z,8.75
2023-05-01T03:18:32.176Z,8.79
2023-05-01T03:20:59.181Z,8.83
2023-05-01T03:23:28.165Z,8.87
2023-05-01T03:25:55.130Z,8.92
2023-05-01T03:28:23.803Z,8.96
2023-05-01T03:30:52.392Z,9.01
2023-05-01T03:33:19.532Z,9.09
2023-05-01T03:35:47.569Z,9.20
2023-05-01T03:38:15.128Z,9.30
2023-05-01T03:41:00.590Z,9.38
2023-05-01T03:43:46.023Z,9.47
2023-05-01T03:46:24.459Z,9.56
2023-05-01T03:48:51.687Z,9.64
2023-05-01T03:51:19.033Z,9.73
2023-05-01T03:53:46.480Z,9.84
2023-05-01T03:56:13.550Z,9.96
2023-05-01T03:58:40.434Z,10.10
2023-05-01T04:01:07.227Z,10.24
2023-05-01T04:03:35.035Z,10.41
2023-05-01T04:06:02.092Z,10.58
2023-05-01T04:08:29.183Z,10.72
2023-05-01T04:10:56.230Z,10.90
2023-05-01T04:13:23.181Z,11.10
2023-05-01T04:15:50.084Z,11.32
2023-05-01T04:18:24.159Z,11.57
2023-05-01T04:20:51.671Z,11.77
2023-05-01T04:23:18.963Z,11.92
2023-05-01T04:25:47.017Z,12.11
2023-05-01T04:28:16.929Z,12.60
2023-05-01T04:30:43.736Z,13.45
2023-05-01T04:33:14.033Z,14.23
2023-05-01T04:35:41.270Z,14.79
2023-05-01T04:38:08.188Z,15.30
2023-05-01T04:40:35.402Z,15.88
2023-05-01T04:43:02.288Z,16.49
2023-05-01T04:45:29.225Z,17.06
2023-05-01T04:47:56.288Z,17.60
2023-05-01T04:50:23.266Z,18.18
2023-05-01T04:52:50.310Z,18.76
2023-05-01T04:55:18.354Z,19.42
2023-05-01T04:57:59.310Z,20.17
2023-05-01T05:00:28.203Z,20.87
2023-05-01T05:02:56.682Z,21.54
2023-05-01T05:05:23.632Z,22.19
2023-05-01T05:07:51.188Z,22.82
2023-05-01T05:10:24.078Z,23.48
2023-05-01T05:13:01.159Z,24.28
2023-05-01T05:15:28.486Z,25.05
2023-05-01T05:17:56.593Z,25.69
2023-05-01T05:20:24.453Z,26.19
2023-05-01T05:22:51.705Z,26.51
2023-05-01T05:25:22.331Z,26.81
2023-05-01T05:27:49.323Z,27.16
2023-05-01T05:30:16.468Z,27.58
2023-05-01T05:32:44.486Z,27.85
2023-05-01T05:35:11.420Z,27.95
2023-05-01T05:37:38.298Z,28.05
2023-05-01T05:40:06.148Z,28.06
2023-05-01T05:42:38.655Z,27.92
2023-05-01T05:45:07.240Z,27.73
2023-05-01T05:47:34.361Z,27.70
2023-05-01T05:50:01.440Z,27.83
2023-05-01T05:52:31.335Z,28.03
2023-05-01T05:54:59.098Z,28.03
2023-05-01T05:57:26.236Z,27.86
2023-05-01T05:59:54.471Z,27.68
2023-05-01T06:02:23.588Z,27.51
2023-05-01T06:04:50.598Z,27.45
2023-05-01T06:07:19.137Z,27.44
2023-05-01T06:09:46.599Z,27.44
2023-05-01T06:12:13.470Z,27.16
2023-05-01T06:14:41.125Z,26.78
2023-05-01T06:17:08.372Z,26.42
2023-05-01T06:19:36.135Z,25.91
2023-05-01T06:22:07.875Z,25.19
2023-05-01T06:24:39.937Z,24.38
2023-05-01T06:27:08.527Z,23.88
2023-05-01T06:29:35.466Z,23.55
2023-05-01T06:32:02.545Z,23.34
2023-05-01T06:34:29.346Z,23.13
2023-05-01T06:36:56.710Z,22.81
2023-05-01T06:39:24.122Z,22.27
2023-05-01T06:41:50.930Z,21.67
2023-05-01T06:44:20.663Z,21.05
2023-05-01T06:46:47.580Z,20.56
2023-05-01T06:49:14.380Z,20.15
2023-05-01T06:51:41.239Z,19.74
2023-05-01T06:54:08.057Z,19.44
2023-05-01T06:56:34.835Z,19.24
2023-05-01T06:59:01.650Z,19.17
2023-05-01T07:01:29.712Z,19.20
2023-05-01T07:03:56.659Z,19.24
2023-05-01T07:06:23.588Z,19.24
2023-05-01T07:08:51.909Z,19.29
2023-05-01T07:11:19.359Z,19.35
2023-05-01T07:13:46.248Z,19.39
2023-05-01T07:16:13.166Z,19.32
2023-05-01T07:18:41.121Z,19.28
2023-05-01T07:21:10.314Z,19.21
2023-05-01T07:23:37.239Z,19.02
2023-05-01T07:26:04.188Z,18.92
2023-05-01T07:28:31.042Z,18.89
2023-05-01T07:30:57.865Z,18.81
2023-05-01T07:33:27.660Z,18.58
2023-05-01T07:35:54.655Z,18.42
2023-05-01T07:38:21.591Z,18.35
2023-05-01T07:40:48.525Z,18.33
2023-05-01T07:43:15.689Z,18.38
2023-05-01T07:45:43.092Z,18.44
2023-05-01T07:48:11.998Z,18.45
2023-05-01T07:50:38.942Z,18.33
2023-05-01T07:53:05.724Z,18.18
2023-05-01T07:55:32.471Z,17.97
2023-05-01T07:58:00.231Z,17.74
2023-05-01T08:00:26.964Z,17.53
2023-05-01T08:02:53.889Z,17.31
2023-05-01T08:05:21.050Z,17.19
2023-05-01T08:07:47.788Z,17.10
2023-05-01T08:10:16.991Z,17.02
2023-05-01T08:12:43.939Z,16.83
2023-05-01T08:15:13.238Z,16.64
2023-05-01T08:17:40.114Z,16.53
2023-05-01T08:20:07.525Z,16.42
2023-05-01T08:22:34.482Z,16.37
2023-05-01T08:25:01.226Z,16.32
2023-05-01T08:27:28.067Z,16.32
2023-05-01T08:29:59.190Z,16.33
2023-05-01T08:32:26.480Z,16.34
2023-05-01T08:34:53.520Z,16.41
2023-05-01T08:37:20.689Z,16.44
2023-05-01T08:39:47.506Z,16.50
2023-05-01T08:42:14.569Z,16.60
2023-05-01T08:44:41.511Z,16.70
2023-05-01T08:47:15.231Z,16.78
2023-05-01T08:49:42.337Z,16.81
2023-05-01T08:52:10.752Z,16.79
2023-05-01T08:54:39.091Z,16.74
2023-05-01T08:57:07.250Z,16.79
2023-05-01T08:59:36.028Z,16.81
2023-05-01T09:02:06.598Z,16.74
2023-05-01T09:04:35.596Z,16.76
2023-05-01T09:07:02.641Z,16.73
2023-05-01T09:09:29.648Z,16.75
2023-05-01T09:11:57.663Z,16.78
2023-05-01T09:14:24.632Z,16.79
2023-05-01T09:16:51.579Z,16.83
2023-05-01T09:19:19.400Z,16.92
2023-05-01T09:21:46.657Z,16.98
2023-05-01T09:24:13.545Z,16.95
2023-05-01T09:26:41.956Z,16.89
2023-05-01T09:29:10.300Z,16.79
2023-05-01T09:31:37.251Z,16.66
2023-05-01T09:34:05.101Z,16.55
2023-05-01T09:36:32.624Z,16.53
2023-05-01T09:39:02.940Z,16.53
2023-05-01T09:41:31.710Z,16.56
2023-05-01T09:43:58.673Z,16.60
2023-05-01T09:46:25.900Z,16.61
2023-05-01T09:49:01.055Z,16.61
2023-05-01T09:51:31.307Z,16.57
2023-05-01T09:53:58.954Z,16.45
2023-05-01T09:56:26.130Z,16.22
2023-05-01T09:58:53.336Z,16.13
2023-05-01T10:01:40.639Z,16.05
2023-05-01T10:04:09.075Z,15.98
2023-05-01T10:06:36.861Z,15.91
2023-05-01T10:09:03.974Z,15.87
2023-05-01T10:11:31.333Z,15.85
2023-05-01T10:14:08.813Z,15.81
2023-05-01T10:16:36.438Z,15.76
2023-05-01T10:19:04.547Z,15.72
2023-05-01T10:21:37.311Z,15.70
2023-05-01T10:24:05.992Z,15.67
2023-05-01T10:26:33.439Z,15.63
2023-05-01T10:29:01.693Z,15.55
2023-05-01T10:31:29.670Z,15.43
2023-05-01T10:33:56.697Z,15.31
2023-05-01T10:36:28.936Z,15.24
2023-05-01T10:38:55.669Z,15.27
2023-05-01T10:41:58.069Z,15.34
2023-05-01T10:44:25.372Z,15.44
2023-05-01T10:46:52.499Z,15.56
2023-05-01T10:49:21.974Z,15.68
2023-05-01T10:51:58.556Z,15.74
2023-05-01T10:54:25.678Z,15.74
2023-05-01T10:56:52.831Z,15.70
2023-05-01T10:59:19.911Z,15.73
2023-05-01T11:01:52.179Z,15.81
2023-05-01T11:04:19.293Z,15.88
2023-05-01T11:06:58.671Z,15.90
2023-05-01T11:09:41.739Z,15.89
2023-05-01T11:12:09.417Z,15.87
2023-05-01T11:14:55.847Z,15.89
2023-05-01T11:17:41.775Z,15.94
2023-05-01T11:20:32.615Z,15.95
2023-05-01T11:22:59.453Z,15.86
2023-05-01T11:25:27.926Z,15.77
2023-05-01T11:27:55.904Z,15.75
2023-05-01T11:30:22.852Z,15.77
2023-05-01T11:32:49.984Z,15.80
2023-05-01T11:35:16.814Z,15.81
2023-05-01T11:37:44.557Z,15.84
2023-05-01T11:40:22.138Z,15.86
2023-05-01T11:42:49.449Z,15.90
2023-05-01T11:45:16.297Z,15.91
2023-05-01T11:47:43.165Z,15.90
2023-05-01T11:50:10.461Z,15.88
2023-05-01T11:52:48.819Z,15.87
2023-05-01T11:55:16.596Z,15.91
2023-05-01T11:57:50.373Z,15.95
2023-05-01T12:00:26.944Z,16.00
2023-05-01T12:03:01.404Z,16.05
2023-05-01T12:05:29.649Z,16.08
2023-05-01T12:08:23.324Z,16.07
2023-05-01T12:10:54.047Z,16.03
2023-05-01T12:13:20.878Z,16.02
2023-05-01T12:15:48.347Z,16.01
2023-05-01T12:18:15.719Z,16.01
2023-05-01T12:20:47.613Z,16.00
2023-05-01T12:23:16.120Z,15.98
2023-05-01T12:25:43.714Z,15.97
2023-05-01T12:28:19.579Z,15.97
2023-05-01T12:30:47.226Z,15.97
2023-05-01T12:33:15.105Z,15.92
2023-05-01T12:35:42.849Z,15.85
2023-05-01T12:38:12.814Z,15.82
2023-05-01T12:40:40.214Z,15.80
2023-05-01T12:43:07.026Z,15.73
2023-05-01T12:45:40.763Z,15.64
2023-05-01T12:48:15.069Z,15.57
2023-05-01T12:50:42.239Z,15.54
2023-05-01T12:53:09.994Z,15.54
2023-05-01T12:55:47.076Z,15.50
2023-05-01T12:58:14.327Z,15.42
2023-05-01T13:01:01.332Z,15.40
2023-05-01T13:03:29.005Z,15.40
2023-05-01T13:05:59.413Z,15.40
2023-05-01T13:08:30.228Z,15.45
2023-05-01T13:10:58.037Z,15.49
2023-05-01T13:13:26.121Z,15.49
2023-05-01T13:15:53.164Z,15.50
2023-05-01T13:18:20.198Z,15.52
2023-05-01T13:20:47.244Z,15.49
2023-05-01T13:23:14.027Z,15.44
2023-05-01T13:25:40.863Z,15.42
2023-05-01T13:28:09.312Z,15.45
2023-05-01T13:30:36.293Z,15.48
2023-05-01T13:33:03.708Z,15.50
2023-05-01T13:35:30.861Z,15.49
2023-05-01T13:37:57.761Z,15.42
2023-05-01T13:40:24.649Z,15.35
2023-05-01T13:42:52.820Z,15.34
2023-05-01T13:45:20.912Z,15.33
2023-05-01T13:47:47.750Z,15.30
2023-05-01T13:50:15.590Z,15.27
2023-05-01T13:52:44.194Z,15.25
2023-05-01T13:55:11.518Z,15.23
2023-05-01T13:57:39.008Z,15.21
2023-05-01T14:00:08.737Z,15.20
2023-05-01T14:02:43.701Z,15.18
2023-05-01T14:05:10.687Z,15.19
2023-05-01T14:07:39.997Z,15.20
2023-05-01T14:10:16.301Z,15.21
2023-05-01T14:12:43.192Z,15.24
2023-05-01T14:15:11.514Z,15.26
2023-05-01T14:17:38.471Z,15.27
2023-05-01T14:20:05.811Z,15.29
2023-05-01T14:22:38.845Z,15.29
2023-05-01T14:25:06.021Z,15.27
2023-05-01T14:27:33.665Z,15.27
2023-05-01T14:30:00.618Z,15.27
2023-05-01T14:32:28.571Z,15.26
2023-05-01T14:34:55.775Z,15.24
2023-05-01T14:37:22.767Z,15.24
2023-05-01T14:39:49.601Z,15.24
2023-05-01T14:42:16.359Z,15.25
2023-05-01T14:44:43.510Z,15.26
2023-05-01T14:47:10.349Z,15.26
2023-05-01T14:49:37.190Z,15.27
2023-05-01T14:52:04.244Z,15.28
2023-05-01T14:54:31.020Z,15.27
2023-05-01T14:56:57.852Z,15.24
2023-05-01T14:59:24.720Z,15.23
2023-05-01T15:01:51.559Z,15.21
2023-05-01T15:04:19.029Z,15.20
2023-05-01T15:06:45.942Z,15.20
2023-05-01T15:09:13.072Z,15.21
2023-05-01T15:11:39.813Z,15.22
2023-05-01T15:14:06.656Z,15.22
2023-05-01T15:16:33.553Z,15.20
2023-05-01T15:19:01.185Z,15.17
2023-05-01T15:21:28.002Z,15.14
2023-05-01T15:23:54.862Z,15.12
2023-05-01T15:26:21.998Z,15.10
2023-05-01T15:28:48.834Z,15.08
2023-05-01T15:31:15.740Z,15.04
2023-05-01T15:33:43.109Z,15.03
2023-05-01T15:36:10.204Z,15.01
2023-05-01T15:38:37.026Z,14.99
2023-05-01T15:41:03.881Z,14.98
2023-05-01T15:43:30.724Z,14.98
2023-05-01T15:45:59.318Z,14.96
2023-05-01T15:48:26.348Z,14.94
2023-05-01T15:50:53.293Z,14.91
2023-05-01T15:53:21.375Z,14.88
2023-05-01T15:55:48.300Z,14.83
2023-05-01T15:58:15.151Z,14.79
2023-05-01T16:00:42.085Z,14.78
2023-05-01T16:03:09.012Z,14.76
2023-05-01T16:05:36.807Z,14.75
2023-05-01T16:08:05.485Z,14.73
2023-05-01T16:10:36.843Z,14.67
2023-05-01T16:13:05.116Z,14.62
2023-05-01T16:15:32.555Z,14.57
2023-05-01T16:17:59.920Z,14.51
2023-05-01T16:20:27.576Z,14.47
2023-05-01T16:22:54.388Z,14.44
2023-05-01T16:25:21.405Z,14.42
2023-05-01T16:27:48.236Z,14.39
2023-05-01T16:30:15.145Z,14.35
2023-05-01T16:32:42.110Z,14.32
2023-05-01T16:35:16.923Z,14.29
2023-05-01T16:37:43.681Z,14.26
2023-05-01T16:40:12.233Z,14.24
2023-05-01T16:42:38.996Z,14.21
2023-05-01T16:45:08.702Z,14.17
2023-05-01T16:47:35.829Z,14.13
2023-05-01T16:50:03.529Z,14.08
2023-05-01T16:52:30.957Z,14.05
2023-05-01T16:54:59.590Z,14.01
2023-05-01T16:57:26.592Z,13.97
2023-05-01T16:59:54.385Z,13.93
2023-05-01T17:02:21.750Z,13.89
2023-05-01T17:04:48.705Z,13.86
2023-05-01T17:07:15.866Z,13.82
2023-05-01T17:09:42.756Z,13.79
2023-05-01T17:12:10.216Z,13.76
2023-05-01T17:14:37.052Z,13.72
2023-05-01T17:19:31.695Z,13.65
2023-05-01T17:21:58.578Z,13.63
2023-05-01T17:24:25.683Z,13.61
2023-05-01T17:26:53.405Z,13.58
2023-05-01T17:29:20.114Z,13.55
2023-05-01T17:31:47.008Z,13.53
2023-05-01T17:34:13.819Z,13.48
2023-05-01T17:36:40.606Z,13.44
2023-05-01T17:39:07.522Z,13.41
2023-05-01T17:41:34.396Z,13.38
2023-05-01T17:44:01.515Z,13.37
2023-05-01T17:46:28.480Z,13.35
2023-05-01T17:48:55.407Z,13.32
2023-05-01T17:51:22.578Z,13.30
2023-05-01T17:53:49.382Z,13.27
2023-05-01T17:56:17.876Z,13.24
2023-05-01T17:58:44.682Z,13.22
2023-05-01T18:01:11.723Z,13.21
2023-05-01T18:03:39.135Z,13.20
2023-05-01T18:06:06.144Z,13.19
2023-05-01T18:08:33.213Z,13.18
2023-05-01T18:11:00.056Z,13.16
2023-05-01T18:13:29.376Z,13.13
2023-05-01T18:15:56.281Z,13.11
2023-05-01T18:18:23.385Z,13.08
2023-05-01T18:20:50.498Z,13.03
2023-05-01T18:23:17.784Z,13.00
2023-05-01T18:25:45.202Z,12.98
2023-05-01T18:28:12.458Z,12.97
2023-05-01T18:30:39.256Z,12.96
2023-05-01T18:33:06.300Z,12.93
2023-05-01T18:35:33.643Z,12.90
2023-05-01T18:38:00.471Z,12.86
2023-05-01T18:40:27.967Z,12.83
2023-05-01T18:42:56.284Z,12.79
2023-05-01T18:45:23.302Z,12.76
2023-05-01T18:47:50.149Z,12.74
2023-05-01T18:50:22.064Z,12.74
2023-05-01T18:52:49.592Z,12.72
2023-05-01T18:55:17.851Z,12.70
2023-05-01T18:57:46.758Z,12.67
2023-05-01T19:00:13.931Z,12.66
2023-05-01T19:02:41.161Z,12.63
2023-05-01T19:05:08.951Z,12.61
2023-05-01T19:07:35.869Z,12.61
2023-05-01T19:10:03.152Z,12.60
2023-05-01T19:12:30.167Z,12.60
2023-05-01T19:14:57.045Z,12.58
2023-05-01T19:17:23.988Z,12.55
2023-05-01T19:19:50.891Z,12.51
2023-05-01T19:22:17.760Z,12.49
2023-05-01T19:24:44.709Z,12.44
2023-05-01T19:27:11.851Z,12.41
2023-05-01T19:29:39.918Z,12.39
2023-05-01T19:32:07.119Z,12.35
2023-05-01T19:34:34.202Z,12.32
2023-05-01T19:37:02.105Z,12.31
2023-05-01T19:39:29.288Z,12.28
2023-05-01T19:41:56.371Z,12.24
2023-05-01T19:44:23.123Z,12.23
2023-05-01T19:46:50.179Z,12.19
2023-05-01T19:49:17.110Z,12.16
2023-05-01T19:51:44.978Z,12.15
2023-05-01T19:54:11.977Z,12.11
2023-05-01T19:56:39.579Z,12.10
2023-05-01T19:59:06.616Z,12.08
2023-05-01T20:01:33.558Z,12.08
2023-05-01T20:04:00.901Z,12.08
2023-05-01T20:06:27.894Z,12.07
2023-05-01T20:08:54.844Z,12.04
2023-05-01T20:11:21.723Z,12.02
2023-05-01T20:13:48.477Z,11.99
2023-05-01T20:16:15.387Z,11.97
2023-05-01T20:18:42.596Z,11.96
2023-05-01T20:21:09.462Z,11.94
2023-05-01T20:23:36.400Z,11.91
2023-05-01T20:26:03.773Z,11.89
2023-05-01T20:28:30.512Z,11.85
2023-05-01T20:30:57.306Z,11.81
2023-05-01T20:33:24.694Z,11.77
2023-05-01T20:35:51.751Z,11.75
2023-05-01T20:38:18.667Z,11.72
2023-05-01T20:40:45.607Z,11.69
2023-05-01T20:43:13.105Z,11.65
2023-05-01T20:45:40.245Z,11.60
2023-05-01T20:48:07.708Z,11.56
2023-05-01T20:50:35.505Z,11.52
2023-05-01T20:53:02.312Z,11.50
2023-05-01T20:55:30.021Z,11.47
2023-05-01T20:57:56.814Z,11.44
2023-05-01T21:00:23.621Z,11.42
2023-05-01T21:02:52.104Z,11.43
2023-05-01T21:05:19.185Z,11.41
2023-05-01T21:07:46.020Z,11.39
2023-05-01T21:10:14.534Z,11.36
2023-05-01T21:12:41.336Z,11.33
2023-05-01T21:15:08.890Z,11.31
2023-05-01T21:17:36.107Z,11.29
2023-05-01T21:20:04.597Z,11.25
2023-05-01T21:22:31.586Z,11.22
2023-05-01T21:24:59.426Z,11.17
2023-05-01T21:27:26.904Z,11.14
2023-05-01T21:30:00.638Z,11.10
2023-05-01T21:32:32.569Z,11.07
2023-05-01T21:34:59.922Z,11.03
2023-05-01T21:37:26.852Z,11.02
2023-05-01T21:39:53.662Z,11.01
2023-05-01T21:42:20.450Z,11.00
2023-05-01T21:44:47.372Z,11.00
2023-05-01T21:47:15.211Z,10.99
2023-05-01T21:49:42.084Z,11.01
2023-05-01T21:52:09.138Z,11.02
2023-05-01T21:54:36.308Z,11.02
2023-05-01T21:57:05.521Z,11.03
2023-05-01T21:59:33.094Z,11.02
2023-05-01T22:01:59.870Z,11.01
2023-05-01T22:04:26.612Z,11.01
2023-05-01T22:06:54.382Z,11.01
2023-05-01T22:09:21.272Z,11.03
2023-05-01T22:11:48.166Z,11.05
2023-05-01T22:14:15.952Z,11.05
2023-05-01T22:16:42.915Z,11.04
2023-05-01T22:19:09.818Z,11.02
2023-05-01T22:21:36.711Z,11.00
2023-05-01T22:24:03.630Z,10.97
2023-05-01T22:26:31.585Z,10.95
2023-05-01T22:28:58.425Z,10.93
2023-05-01T22:31:25.297Z,10.91
2023-05-01T22:33:53.562Z,10.91
2023-05-01T22:36:20.698Z,10.90
2023-05-01T22:38:47.537Z,10.89
2023-05-01T22:41:15.334Z,10.87
2023-05-01T22:43:42.255Z,10.86
2023-05-01T22:46:09.132Z,10.84
2023-05-01T22:48:35.962Z,10.83
2023-05-01T22:51:02.754Z,10.83
2023-05-01T22:53:31.355Z,10.81
2023-05-01T22:55:58.197Z,10.79
2023-05-01T22:58:25.148Z,10.77
2023-05-01T23:00:52.104Z,10.75
2023-05-01T23:03:19.050Z,10.70
2023-05-01T23:05:46.024Z,10.65
2023-05-01T23:08:12.819Z,10.63
2023-05-01T23:10:40.420Z,10.60
2023-05-01T23:13:17.544Z,10.56
2023-05-01T23:15:47.726Z,10.51
2023-05-01T23:18:15.697Z,10.47
2023-05-01T23:20:43.163Z,10.42
2023-05-01T23:23:12.303Z,10.37
2023-05-01T23:25:39.141Z,10.32
2023-05-01T23:28:06.087Z,10.28
2023-05-01T23:30:32.836Z,10.23
2023-05-01T23:32:59.951Z,10.18
2023-05-01T23:35:26.743Z,10.13
2023-05-01T23:37:54.049Z,10.08
2023-05-01T23:40:21.121Z,10.02
2023-05-01T23:42:48.024Z,9.96
2023-05-01T23:45:14.965Z,9.91
2023-05-01T23:47:42.017Z,9.85
2023-05-01T23:50:09.105Z,9.81
2023-05-01T23:52:36.274Z,9.77
2023-05-01T23:55:03.162Z,9.74
2023-05-01T23:57:29.940Z,9.71
2023-05-01T23:59:56.944Z,9.69
